Time;durP1;ratioP1;P1;durP2;ratioP2;P2;SDS_P1;SDS_P2;PMS_P1;PMS_P2;Temp;Humidity;BMP_temperature;BMP_pressure;BME280_temperature;BME280_humidity;BME280_pressure;Samples;Min_cycle;Max_cycle;Signal;HPM_P1;HPM_P2
2022/04/09 00:00:26;;;;;;;7.07;4.80;;;4.60;99.90;;;;;;5062897;28;20452;-79
2022/04/09 00:02:55;;;;;;;7.73;4.00;;;4.60;99.90;;;;;;5073294;28;20965;-79
2022/04/09 00:05:23;;;;;;;6.83;4.80;;;4.60;99.90;;;;;;5068353;28;20476;-79
2022/04/09 00:07:51;;;;;;;8.87;4.50;;;4.60;99.90;;;;;;5067778;28;20453;-79
2022/04/09 00:10:19;;;;;;;9.53;4.80;;;4.60;99.90;;;;;;5063530;28;20947;-79
2022/04/09 00:12:48;;;;;;;7.70;4.80;;;4.60;99.90;;;;;;5056817;28;20469;-79
2022/04/09 00:15:17;;;;;;;6.27;3.83;;;4.50;99.90;;;;;;5059622;28;20477;-79
2022/04/09 00:17:48;;;;;;;6.47;3.93;;;4.60;99.90;;;;;;5072145;28;20486;-79
2022/04/09 00:20:18;;;;;;;6.43;3.87;;;4.60;99.90;;;;;;5070976;28;20449;-79
2022/04/09 00:22:46;;;;;;;7.30;3.73;;;4.60;99.90;;;;;;5063576;28;20438;-79
2022/04/09 00:25:21;;;;;;;4.87;3.50;;;4.50;99.90;;;;;;5076628;28;20454;-80
2022/04/09 00:27:50;;;;;;;9.50;3.77;;;4.50;99.90;;;;;;5059802;28;20927;-79
2022/04/09 00:30:20;;;;;;;7.27;2.70;;;4.50;99.90;;;;;;5060692;28;20452;-79
2022/04/09 00:32:48;;;;;;;4.60;3.13;;;4.50;99.90;;;;;;5075460;28;20448;-79
2022/04/09 00:35:16;;;;;;;6.43;3.60;;;4.50;99.90;;;;;;5042874;28;20898;-79
2022/04/09 00:37:45;;;;;;;6.30;2.50;;;4.40;99.90;;;;;;5066296;28;20483;-79
2022/04/09 00:40:18;;;;;;;7.90;3.00;;;4.40;99.90;;;;;;5067851;28;20533;-79
2022/04/09 00:42:46;;;;;;;8.50;2.93;;;4.40;99.90;;;;;;5059331;28;20473;-79
2022/04/09 00:45:15;;;;;;;4.90;2.53;;;4.40;99.90;;;;;;5062559;28;20819;-79
2022/04/09 00:47:44;;;;;;;4.27;2.83;;;4.40;99.90;;;;;;5071711;28;20472;-79
2022/04/09 00:50:13;;;;;;;8.20;3.20;;;4.30;99.90;;;;;;5059705;28;20461;-80
2022/04/09 00:52:47;;;;;;;8.30;3.30;;;4.30;99.90;;;;;;5075292;28;20881;-79
2022/04/09 00:55:19;;;;;;;6.00;3.00;;;4.30;99.90;;;;;;5062107;28;20477;-80
2022/04/09 00:57:50;;;;;;;6.17;2.77;;;4.40;99.90;;;;;;5071080;28;20442;-79
2022/04/09 01:00:19;;;;;;;5.87;3.17;;;4.30;99.90;;;;;;5059417;28;20450;-79
2022/04/09 01:02:49;;;;;;;7.63;3.80;;;4.30;99.90;;;;;;5058888;28;20456;-79
2022/04/09 01:05:18;;;;;;;7.17;3.20;;;4.30;99.90;;;;;;5063424;28;20852;-79
2022/04/09 01:07:48;;;;;;;8.17;3.40;;;4.20;99.90;;;;;;5069727;28;20485;-79
2022/04/09 01:10:16;;;;;;;5.97;3.73;;;4.30;99.90;;;;;;5075483;28;20471;-79
2022/04/09 01:12:44;;;;;;;7.60;2.77;;;4.20;99.90;;;;;;5064488;28;20504;-79
2022/04/09 01:15:12;;;;;;;6.33;3.07;;;4.20;99.90;;;;;;5074843;28;20446;-80
2022/04/09 01:17:41;;;;;;;8.60;3.20;;;4.20;99.90;;;;;;5070754;28;20886;-79
2022/04/09 01:20:19;;;;;;;5.97;3.43;;;4.20;99.90;;;;;;5078639;28;20473;-79
2022/04/09 01:22:51;;;;;;;7.10;3.23;;;4.20;99.90;;;;;;5061997;28;20487;-79
2022/04/09 01:25:20;;;;;;;7.03;2.37;;;4.20;99.90;;;;;;5042468;28;20505;-79
2022/04/09 01:27:51;;;;;;;3.70;2.30;;;4.20;99.90;;;;;;5080508;28;20438;-79
2022/04/09 01:30:20;;;;;;;7.20;3.70;;;4.20;99.90;;;;;;5066845;28;20507;-81
2022/04/09 01:32:48;;;;;;;7.60;2.77;;;4.20;99.90;;;;;;5074848;28;20451;-79
2022/04/09 01:35:17;;;;;;;11.50;3.30;;;4.20;99.90;;;;;;5062867;28;20566;-79
2022/04/09 01:37:46;;;;;;;5.30;2.57;;;4.20;99.90;;;;;;5078390;28;20445;-79
2022/04/09 01:40:15;;;;;;;7.20;2.27;;;4.10;99.90;;;;;;5068731;28;20812;-80
2022/04/09 01:42:48;;;;;;;5.63;2.73;;;4.20;99.90;;;;;;5058882;28;20445;-80
2022/04/09 01:45:16;;;;;;;5.43;2.17;;;4.10;99.90;;;;;;5075371;28;20485;-80
2022/04/09 01:47:44;;;;;;;5.67;2.80;;;4.10;99.90;;;;;;5071221;28;20435;-80
2022/04/09 01:50:13;;;;;;;6.87;2.47;;;4.10;99.90;;;;;;5058544;28;20970;-80
2022/04/09 01:52:41;;;;;;;5.57;2.17;;;4.10;99.90;;;;;;5058227;28;20481;-80
2022/04/09 01:55:10;;;;;;;4.83;2.60;;;4.10;99.90;;;;;;5076079;28;20441;-80
2022/04/09 01:57:43;;;;;;;5.53;2.00;;;4.10;99.90;;;;;;5065637;28;20464;-80
2022/04/09 02:00:13;;;;;;;3.50;1.90;;;4.10;99.90;;;;;;5067141;28;20496;-80
2022/04/09 02:02:44;;;;;;;4.80;2.57;;;4.10;99.90;;;;;;5058900;28;20450;-80
2022/04/09 02:05:14;;;;;;;6.67;2.50;;;4.00;99.90;;;;;;5061587;28;20489;-80
2022/04/09 02:07:45;;;;;;;5.47;2.17;;;4.10;99.90;;;;;;5071093;28;20800;-80
2022/04/09 02:10:14;;;;;;;3.57;2.00;;;4.00;99.90;;;;;;5071959;28;20445;-80
2022/04/09 02:12:45;;;;;;;9.37;2.40;;;4.00;99.90;;;;;;5067380;28;20438;-81
2022/04/09 02:15:16;;;;;;;9.60;3.27;;;4.00;99.90;;;;;;5082512;28;20438;-80
2022/04/09 02:17:45;;;;;;;7.53;3.10;;;3.90;99.90;;;;;;5079344;28;20476;-81
2022/04/09 02:20:15;;;;;;;6.17;2.67;;;3.90;99.90;;;;;;5084070;28;20449;-81
2022/04/09 02:22:45;;;;;;;6.57;2.53;;;3.90;99.90;;;;;;5089068;28;20441;-81
2022/04/09 02:25:18;;;;;;;6.90;2.33;;;3.90;99.90;;;;;;5073248;28;20445;-81
2022/04/09 02:27:49;;;;;;;5.40;2.40;;;3.90;99.90;;;;;;5081491;28;20449;-80
2022/04/09 02:30:20;;;;;;;6.97;3.53;;;3.90;99.90;;;;;;5088805;28;20459;-80
2022/04/09 02:32:54;;;;;;;7.83;3.40;;;3.80;99.90;;;;;;5097522;28;20454;-79
2022/04/09 02:35:26;;;;;;;7.10;3.07;;;3.80;99.90;;;;;;5072013;28;20993;-80
2022/04/09 02:37:56;;;;;;;5.63;2.63;;;3.80;99.90;;;;;;5075348;28;20477;-80
2022/04/09 02:40:28;;;;;;;6.93;3.00;;;3.80;99.90;;;;;;5084110;28;20447;-80
2022/04/09 02:42:58;;;;;;;6.20;2.60;;;3.80;99.90;;;;;;5075437;28;20458;-80
2022/04/09 02:45:27;;;;;;;6.03;2.50;;;3.80;99.90;;;;;;5064544;28;20469;-80
2022/04/09 02:47:56;;;;;;;11.43;3.03;;;3.70;99.90;;;;;;5074927;28;20457;-80
2022/04/09 02:50:31;;;;;;;9.20;3.87;;;3.80;99.90;;;;;;5073032;28;20442;-80
2022/04/09 02:53:00;;;;;;;7.33;2.80;;;3.80;99.90;;;;;;5073142;28;20453;-80
2022/04/09 02:55:29;;;;;;;6.03;2.83;;;3.70;99.90;;;;;;5056321;28;20472;-80
2022/04/09 02:58:01;;;;;;;4.10;3.10;;;3.70;99.90;;;;;;5074867;28;20471;-80
2022/04/09 03:00:32;;;;;;;5.80;3.17;;;3.70;99.90;;;;;;5062576;28;20448;-80
2022/04/09 03:03:04;;;;;;;5.97;3.20;;;3.70;99.90;;;;;;5056329;28;20442;-80
2022/04/09 03:05:42;;;;;;;9.10;2.60;;;3.70;99.90;;;;;;5056445;28;20464;-79
2022/04/09 03:08:10;;;;;;;9.80;3.23;;;3.70;99.90;;;;;;5046800;28;20455;-80
2022/04/09 03:10:39;;;;;;;6.10;2.83;;;3.70;99.90;;;;;;5060944;28;20434;-79
2022/04/09 03:13:08;;;;;;;8.70;3.90;;;3.70;99.90;;;;;;5073938;28;20459;-80
2022/04/09 03:15:37;;;;;;;4.10;2.60;;;3.70;99.90;;;;;;5066284;28;20469;-80
2022/04/09 03:18:09;;;;;;;5.53;3.67;;;3.70;99.90;;;;;;5067341;28;20551;-79
2022/04/09 03:20:38;;;;;;;8.73;3.20;;;3.70;99.90;;;;;;5055844;28;20540;-79
2022/04/09 03:23:07;;;;;;;6.73;2.67;;;3.70;99.90;;;;;;5072221;28;20479;-79
2022/04/09 03:25:52;;;;;;;8.00;3.20;;;3.70;99.90;;;;;;5056336;28;20483;-79
2022/04/09 03:28:26;;;;;;;7.60;3.20;;;3.70;99.90;;;;;;5068589;28;20488;-80
2022/04/09 03:30:54;;;;;;;5.50;3.00;;;3.60;99.90;;;;;;5073654;28;20521;-80
2022/04/09 03:33:22;;;;;;;7.93;3.07;;;3.70;99.90;;;;;;5057151;28;20445;-81
2022/04/09 03:35:58;;;;;;;4.20;2.23;;;3.60;99.90;;;;;;5056039;28;20476;-79
2022/04/09 03:38:29;;;;;;;7.00;3.13;;;3.60;99.90;;;;;;5055781;28;20477;-79
2022/04/09 03:41:02;;;;;;;9.27;3.33;;;3.60;99.90;;;;;;5055918;28;20481;-79
2022/04/09 03:43:52;;;;;;;10.03;3.00;;;3.60;99.90;;;;;;5056674;28;20450;-80
2022/04/09 03:46:27;;;;;;;6.60;2.67;;;3.60;99.90;;;;;;5056205;28;20477;-80
2022/04/09 03:48:57;;;;;;;5.03;2.70;;;3.60;99.90;;;;;;5055249;28;20450;-80
2022/04/09 03:51:26;;;;;;;8.77;3.10;;;3.60;99.90;;;;;;5064604;28;20465;-80
2022/04/09 03:53:55;;;;;;;7.50;3.03;;;3.60;99.90;;;;;;5064557;28;20467;-80
2022/04/09 03:56:27;;;;;;;5.73;2.87;;;3.60;99.90;;;;;;5062599;28;20480;-80
2022/04/09 03:58:56;;;;;;;3.97;2.60;;;3.60;99.90;;;;;;5068767;28;20579;-80
2022/04/09 04:01:27;;;;;;;5.03;2.50;;;3.60;99.90;;;;;;5056017;28;20454;-80
2022/04/09 04:03:58;;;;;;;6.07;2.83;;;3.60;99.90;;;;;;5055504;28;20465;-80
2022/04/09 04:06:28;;;;;;;5.73;2.53;;;3.60;99.90;;;;;;5056037;28;20557;-80
2022/04/09 04:08:58;;;;;;;5.60;2.60;;;3.60;99.90;;;;;;5054552;28;20457;-80
2022/04/09 04:11:30;;;;;;;4.73;2.43;;;3.50;99.90;;;;;;5055168;28;20492;-80
2022/04/09 04:14:04;;;;;;;5.50;3.40;;;3.60;99.90;;;;;;5070469;28;20448;-80
2022/04/09 04:16:34;;;;;;;3.57;2.53;;;3.50;99.90;;;;;;5056185;28;20476;-80
2022/04/09 04:19:02;;;;;;;5.73;2.60;;;3.50;99.90;;;;;;5075815;28;20465;-80
2022/04/09 04:21:30;;;;;;;5.73;2.60;;;3.50;99.90;;;;;;5063075;28;20456;-80
2022/04/09 04:24:04;;;;;;;4.73;2.23;;;3.50;99.90;;;;;;5072509;28;20502;-80
2022/04/09 04:26:33;;;;;;;5.20;2.93;;;3.50;99.90;;;;;;5061130;28;20563;-80
2022/04/09 04:29:11;;;;;;;10.93;3.33;;;3.50;99.90;;;;;;5076345;28;20499;-80
2022/04/09 04:31:39;;;;;;;5.70;3.00;;;3.50;99.90;;;;;;5060489;28;20979;-80
2022/04/09 04:34:08;;;;;;;4.60;2.90;;;3.50;99.90;;;;;;5068995;28;20471;-79
2022/04/09 04:36:41;;;;;;;6.37;3.60;;;3.50;99.90;;;;;;5058179;28;20466;-79
2022/04/09 04:39:12;;;;;;;7.33;3.60;;;3.40;99.90;;;;;;5075161;28;20531;-80
2022/04/09 04:41:43;;;;;;;6.93;3.27;;;3.40;99.90;;;;;;5069718;28;20442;-80
2022/04/09 04:44:12;;;;;;;10.03;3.80;;;3.50;99.90;;;;;;5065534;28;20481;-80
2022/04/09 04:46:46;;;;;;;7.57;3.27;;;3.50;99.90;;;;;;5059960;28;20469;-80
2022/04/09 04:49:19;;;;;;;5.50;2.83;;;3.50;99.90;;;;;;5054512;28;20446;-80
2022/04/09 04:51:50;;;;;;;5.60;3.77;;;3.40;99.90;;;;;;5071190;28;20453;-80
2022/04/09 04:54:19;;;;;;;6.40;3.27;;;3.40;99.90;;;;;;5067728;28;20455;-80
2022/04/09 04:56:48;;;;;;;6.03;3.10;;;3.40;99.90;;;;;;5055109;28;20476;-80
2022/04/09 04:59:18;;;;;;;8.40;3.33;;;3.40;99.90;;;;;;5061320;28;20504;-81
2022/04/09 05:01:46;;;;;;;6.67;3.70;;;3.40;99.90;;;;;;5075319;28;20511;-80
2022/04/09 05:04:17;;;;;;;6.10;3.73;;;3.40;99.90;;;;;;5063055;28;20450;-81
2022/04/09 05:06:52;;;;;;;7.70;3.17;;;3.40;99.90;;;;;;5079976;28;20468;-80
2022/04/09 05:09:23;;;;;;;7.57;3.93;;;3.40;99.90;;;;;;5078898;28;20499;-80
2022/04/09 05:11:55;;;;;;;7.87;3.47;;;3.40;99.90;;;;;;5067616;28;20450;-81
2022/04/09 05:14:33;;;;;;;8.00;4.13;;;3.40;99.90;;;;;;5061588;28;20466;-81
2022/04/09 05:17:05;;;;;;;8.03;4.00;;;3.40;99.90;;;;;;5058982;28;20469;-81
2022/04/09 05:19:36;;;;;;;8.00;3.37;;;3.40;99.90;;;;;;5068817;28;20464;-81
2022/04/09 05:22:12;;;;;;;9.23;4.40;;;3.50;99.90;;;;;;5068952;28;20814;-81
2022/04/09 05:24:53;;;;;;;4.57;3.13;;;3.40;99.90;;;;;;5059995;28;20523;-80
2022/04/09 05:27:22;;;;;;;7.40;3.60;;;3.40;99.90;;;;;;5046064;28;20453;-81
2022/04/09 05:29:52;;;;;;;11.33;4.43;;;3.40;99.90;;;;;;5070997;28;21001;-79
2022/04/09 05:32:22;;;;;;;7.60;3.53;;;3.50;99.90;;;;;;5077050;28;20453;-79
2022/04/09 05:34:51;;;;;;;7.97;4.53;;;3.50;99.90;;;;;;5066762;28;20442;-80
2022/04/09 05:37:20;;;;;;;6.50;2.80;;;3.50;99.90;;;;;;5073317;28;20469;-80
2022/04/09 05:39:50;;;;;;;7.83;2.50;;;3.60;99.90;;;;;;5044067;28;20457;-79
2022/04/09 05:42:19;;;;;;;5.80;3.07;;;3.60;99.90;;;;;;5058384;28;20445;-80
2022/04/09 05:44:48;;;;;;;6.30;3.10;;;3.60;99.90;;;;;;5058850;28;20457;-81
2022/04/09 05:47:18;;;;;;;4.83;3.17;;;3.60;99.90;;;;;;5061530;28;20466;-81
2022/04/09 05:49:46;;;;;;;8.27;2.90;;;3.70;99.90;;;;;;5061236;28;20438;-81
2022/04/09 05:52:16;;;;;;;5.60;2.80;;;3.70;99.90;;;;;;5063140;28;20464;-81
2022/04/09 05:54:45;;;;;;;5.50;3.27;;;3.70;99.90;;;;;;5067849;28;20502;-80
2022/04/09 05:57:14;;;;;;;7.73;3.00;;;3.80;99.90;;;;;;5058203;28;20477;-81
2022/04/09 05:59:44;;;;;;;6.77;3.57;;;3.80;99.90;;;;;;5060966;28;20973;-80
2022/04/09 06:02:13;;;;;;;4.60;3.30;;;3.80;99.90;;;;;;5063667;28;20442;-80
2022/04/09 06:04:43;;;;;;;7.90;2.97;;;3.90;99.90;;;;;;5069922;28;20541;-80
2022/04/09 06:07:13;;;;;;;8.57;3.80;;;4.00;99.90;;;;;;5058568;28;20473;-79
2022/04/09 06:09:54;;;;;;;6.80;2.90;;;4.10;99.90;;;;;;5075617;28;20960;-80
2022/04/09 06:12:23;;;;;;;6.10;2.83;;;4.10;99.90;;;;;;5075230;28;20449;-80
2022/04/09 06:14:57;;;;;;;4.50;2.93;;;4.30;99.90;;;;;;5065170;28;20445;-80
2022/04/09 06:17:36;;;;;;;7.63;3.70;;;4.50;99.90;;;;;;5073256;28;20976;-80
2022/04/09 06:20:07;;;;;;;4.40;2.70;;;4.70;99.90;;;;;;5072027;28;20466;-80
2022/04/09 06:22:40;;;;;;;5.00;2.90;;;4.80;99.90;;;;;;5058533;28;20438;-80
2022/04/09 06:25:10;;;;;;;11.07;3.00;;;4.90;99.90;;;;;;5063078;28;20460;-81
2022/04/09 06:27:40;;;;;;;7.83;4.30;;;5.00;99.90;;;;;;5078761;28;20486;-80
2022/04/09 06:30:12;;;;;;;4.73;2.67;;;5.30;99.90;;;;;;5076767;28;20502;-80
2022/04/09 06:32:44;;;;;;;4.17;2.20;;;5.50;99.90;;;;;;5080268;28;20496;-81
2022/04/09 06:35:14;;;;;;;7.10;2.63;;;5.60;99.90;;;;;;5077057;28;20449;-80
2022/04/09 06:37:42;;;;;;;4.50;2.60;;;5.70;99.90;;;;;;5080075;28;20503;-81
2022/04/09 06:40:13;;;;;;;4.73;2.53;;;5.80;99.90;;;;;;5075369;28;20479;-81
2022/04/09 06:42:42;;;;;;;4.97;2.40;;;6.00;99.90;;;;;;5038035;28;20852;-81
2022/04/09 06:45:39;;;;;;;4.57;2.50;;;6.10;99.90;;;;;;5056389;28;20465;-80
2022/04/09 06:48:20;;;;;;;7.07;3.53;;;6.30;99.90;;;;;;5077729;28;20435;-81
2022/04/09 06:51:09;;;;;;;5.63;2.43;;;6.50;99.90;;;;;;5036064;28;20472;-79
2022/04/09 06:53:38;;;;;;;6.10;2.50;;;6.70;99.90;;;;;;5068601;28;20464;-81
2022/04/09 06:56:07;;;;;;;8.30;3.37;;;6.90;99.90;;;;;;5075685;28;20510;-80
2022/04/09 06:58:35;;;;;;;5.67;2.63;;;7.00;99.90;;;;;;5073885;28;21059;-81
2022/04/09 07:01:04;;;;;;;6.10;2.50;;;7.10;99.90;;;;;;5076046;28;20489;-80
2022/04/09 07:03:37;;;;;;;5.17;2.50;;;7.30;99.90;;;;;;5076834;28;20467;-82
2022/04/09 07:06:10;;;;;;;3.83;2.00;;;7.40;99.90;;;;;;5056349;28;20479;-82
2022/04/09 07:08:39;;;;;;;6.40;2.60;;;7.50;99.90;;;;;;5076820;28;20825;-81
2022/04/09 07:11:07;;;;;;;6.43;2.33;;;7.60;99.90;;;;;;5076857;28;20452;-80
2022/04/09 07:13:35;;;;;;;6.27;2.40;;;7.70;99.90;;;;;;5075448;28;20485;-80
2022/04/09 07:16:04;;;;;;;6.37;2.20;;;7.80;99.90;;;;;;5063537;28;20466;-81
2022/04/09 07:18:36;;;;;;;5.13;2.60;;;7.80;99.90;;;;;;5036682;28;20429;-81
2022/04/09 07:21:05;;;;;;;3.97;2.90;;;8.00;99.90;;;;;;5036771;28;20434;-81
2022/04/09 07:23:34;;;;;;;4.13;2.07;;;8.00;99.90;;;;;;5051499;28;20871;-82
2022/04/09 07:26:03;;;;;;;7.07;2.57;;;8.10;99.90;;;;;;5055035;28;20462;-80
2022/04/09 07:28:31;;;;;;;5.23;1.73;;;8.10;99.90;;;;;;5070127;28;20583;-81
2022/04/09 07:31:01;;;;;;;4.43;2.60;;;8.20;99.90;;;;;;5075225;28;20458;-80
2022/04/09 07:33:30;;;;;;;4.90;2.10;;;8.30;99.90;;;;;;5074779;28;20930;-80
2022/04/09 07:35:58;;;;;;;6.00;2.70;;;8.20;99.90;;;;;;5060302;28;20472;-80
2022/04/09 07:38:26;;;;;;;5.70;2.13;;;8.20;99.90;;;;;;5074527;28;20468;-80
2022/04/09 07:40:56;;;;;;;6.30;2.40;;;8.30;99.90;;;;;;5076062;28;20514;-80
2022/04/09 07:43:24;;;;;;;7.53;2.73;;;8.30;99.90;;;;;;5071607;28;20461;-81
2022/04/09 07:45:52;;;;;;;4.80;1.97;;;8.40;99.90;;;;;;5073681;28;20483;-82
2022/04/09 07:48:20;;;;;;;7.80;2.20;;;8.40;99.90;;;;;;5074758;28;20517;-80
2022/04/09 07:50:48;;;;;;;4.53;1.70;;;8.50;99.90;;;;;;5076047;28;20507;-79
2022/04/09 07:53:17;;;;;;;3.90;1.60;;;8.50;99.90;;;;;;5072725;28;20449;-80
2022/04/09 07:55:45;;;;;;;8.47;2.60;;;8.60;99.90;;;;;;5074672;28;20912;-81
2022/04/09 07:58:15;;;;;;;3.93;1.77;;;8.60;99.90;;;;;;5072525;28;20444;-81
2022/04/09 08:00:45;;;;;;;4.70;2.33;;;8.70;99.90;;;;;;5074430;28;21023;-81
2022/04/09 08:03:14;;;;;;;6.13;2.60;;;8.80;99.90;;;;;;5074383;28;20452;-80
2022/04/09 08:05:42;;;;;;;5.00;2.10;;;8.80;99.90;;;;;;5074756;28;20572;-81
2022/04/09 08:08:11;;;;;;;4.30;2.23;;;8.80;99.90;;;;;;5075058;28;20441;-81
2022/04/09 08:10:39;;;;;;;4.27;1.80;;;8.80;99.90;;;;;;5072098;28;20522;-81
2022/04/09 08:13:09;;;;;;;2.93;1.80;;;8.70;99.90;;;;;;5048442;28;20453;-80
2022/04/09 08:15:39;;;;;;;3.83;1.73;;;8.80;99.90;;;;;;5075055;28;20477;-81
2022/04/09 08:18:09;;;;;;;3.60;1.40;;;9.00;99.90;;;;;;5074653;28;20456;-80
2022/04/09 08:21:00;;;;;;;3.93;1.70;;;9.10;99.90;;;;;;5053511;28;20828;-81
2022/04/09 08:23:28;;;;;;;2.90;1.63;;;9.20;99.90;;;;;;5054577;28;20438;-81
2022/04/09 08:25:56;;;;;;;6.20;2.03;;;9.20;99.90;;;;;;5060456;28;20471;-81
2022/04/09 08:28:30;;;;;;;5.23;1.77;;;9.30;99.90;;;;;;5076048;28;20453;-82
2022/04/09 08:31:00;;;;;;;5.43;1.70;;;9.50;99.90;;;;;;5074644;28;20973;-80
2022/04/09 08:33:28;;;;;;;3.40;1.20;;;9.60;99.90;;;;;;5072725;28;20457;-80
2022/04/09 08:35:56;;;;;;;4.27;1.80;;;9.60;99.90;;;;;;5077748;28;20989;-81
2022/04/09 08:38:26;;;;;;;4.80;1.67;;;9.50;99.90;;;;;;5080191;28;20440;-80
2022/04/09 08:41:02;;;;;;;4.43;2.10;;;9.40;99.90;;;;;;5077299;28;20473;-81
2022/04/09 08:43:30;;;;;;;4.33;2.00;;;9.30;99.90;;;;;;5078135;28;21044;-80
2022/04/09 08:46:08;;;;;;;5.37;1.80;;;9.20;99.90;;;;;;5077708;28;21082;-82
2022/04/09 08:48:38;;;;;;;2.10;1.50;;;9.10;99.90;;;;;;5079257;28;20417;-80
2022/04/09 08:51:07;;;;;;;4.77;1.83;;;9.00;99.90;;;;;;5078204;28;20485;-79
2022/04/09 08:53:56;;;;;;;6.90;1.70;;;9.00;99.90;;;;;;5039895;28;20451;-80
2022/04/09 08:56:26;;;;;;;6.20;2.50;;;9.00;99.90;;;;;;5075394;28;20518;-80
2022/04/09 08:58:58;;;;;;;6.43;2.33;;;9.00;99.90;;;;;;5080126;28;20945;-82
2022/04/09 09:01:28;;;;;;;3.47;1.57;;;9.20;99.90;;;;;;5074361;28;20473;-80
2022/04/09 09:03:58;;;;;;;6.03;1.70;;;9.40;99.90;;;;;;5077617;28;20460;-80
2022/04/09 09:06:29;;;;;;;4.37;2.07;;;9.60;99.90;;;;;;5079450;28;20788;-80
2022/04/09 09:08:59;;;;;;;4.40;1.67;;;9.70;99.90;;;;;;5076207;28;20472;-82
2022/04/09 09:11:28;;;;;;;7.90;2.27;;;9.90;99.90;;;;;;5077784;28;20462;-81
2022/04/09 09:13:58;;;;;;;8.00;2.23;;;10.10;99.90;;;;;;5077003;28;20437;-80
2022/04/09 09:16:29;;;;;;;4.80;1.60;;;10.20;99.90;;;;;;5077461;28;21020;-79
2022/04/09 09:18:59;;;;;;;5.00;1.90;;;10.20;99.90;;;;;;5077360;28;20453;-79
2022/04/09 09:21:27;;;;;;;4.17;1.70;;;10.20;99.90;;;;;;5074846;28;20514;-80
2022/04/09 09:24:12;;;;;;;4.03;2.20;;;10.00;99.90;;;;;;5078632;28;20467;-80
2022/04/09 09:26:44;;;;;;;3.57;1.90;;;9.80;99.90;;;;;;5077720;28;20802;-80
2022/04/09 09:29:27;;;;;;;4.03;1.90;;;9.60;99.90;;;;;;5075832;28;20444;-79
2022/04/09 09:32:08;;;;;;;6.33;2.07;;;9.30;99.90;;;;;;5079200;28;20472;-81
2022/04/09 09:34:38;;;;;;;4.73;1.73;;;9.00;99.90;;;;;;5075692;28;20533;-80
2022/04/09 09:37:24;;;;;;;5.10;2.20;;;8.80;99.90;;;;;;5077299;28;20469;-80
2022/04/09 09:39:52;;;;;;;5.23;1.93;;;8.60;99.90;;;;;;5078667;28;20471;-80
2022/04/09 09:42:22;;;;;;;3.97;1.60;;;8.60;99.90;;;;;;5074239;28;20484;-79
2022/04/09 09:44:53;;;;;;;6.50;1.37;;;8.50;99.90;;;;;;5059132;28;20430;-81
2022/04/09 09:47:27;;;;;;;4.17;1.47;;;8.50;99.90;;;;;;5060186;28;20825;-80
2022/04/09 09:49:57;;;;;;;4.53;1.47;;;8.40;99.90;;;;;;5067856;28;20513;-80
2022/04/09 09:52:27;;;;;;;10.10;2.47;;;8.40;99.90;;;;;;5077196;28;20457;-80
2022/04/09 09:55:00;;;;;;;3.90;1.50;;;8.40;99.90;;;;;;5076892;28;20456;-79
2022/04/09 09:57:29;;;;;;;5.50;1.67;;;8.50;99.90;;;;;;5077930;28;20483;-80
2022/04/09 10:00:01;;;;;;;5.83;2.30;;;8.70;99.90;;;;;;5076417;28;20449;-80
2022/04/09 10:02:39;;;;;;;4.23;1.90;;;8.70;99.90;;;;;;5072756;28;20466;-80
2022/04/09 10:05:09;;;;;;;6.87;2.27;;;8.70;99.90;;;;;;5076532;28;20453;-80
2022/04/09 10:07:37;;;;;;;7.13;2.07;;;8.70;99.90;;;;;;5073212;28;20822;-79
2022/04/09 10:10:07;;;;;;;7.80;2.27;;;8.70;99.90;;;;;;5077100;28;20453;-80
2022/04/09 10:12:39;;;;;;;5.00;2.00;;;8.60;99.90;;;;;;5077315;28;20464;-80
2022/04/09 10:15:09;;;;;;;7.27;2.40;;;8.60;99.90;;;;;;5078854;28;20512;-79
2022/04/09 10:17:41;;;;;;;5.23;2.40;;;8.50;99.90;;;;;;5077924;28;20879;-80
2022/04/09 10:20:11;;;;;;;9.47;2.30;;;8.50;99.90;;;;;;5068084;28;20497;-80
2022/04/09 10:22:43;;;;;;;5.20;1.90;;;8.50;99.90;;;;;;5075952;28;20491;-80
2022/04/09 10:25:16;;;;;;;7.43;2.03;;;8.50;99.90;;;;;;5070204;28;20504;-80
2022/04/09 10:27:52;;;;;;;5.03;2.47;;;8.40;99.90;;;;;;5061967;28;20533;-79
2022/04/09 10:30:21;;;;;;;6.73;2.80;;;8.40;99.90;;;;;;5077979;28;20499;-80
2022/04/09 10:32:56;;;;;;;5.40;1.90;;;8.30;99.90;;;;;;5079987;28;20425;-79
2022/04/09 10:35:40;;;;;;;;;;;;;;;;;;;;;
2022/04/09 10:38:20;;;;;;;4.13;2.00;;;8.10;99.90;;;;;;5078332;28;20468;-80
2022/04/09 10:41:31;;;;;;;8.50;1.77;;;7.90;99.90;;;;;;5077824;28;20473;-80
2022/04/09 10:44:01;;;;;;;5.73;2.30;;;7.70;99.90;;;;;;5076855;28;20454;-80
2022/04/09 10:46:35;;;;;;;5.70;2.67;;;7.60;99.90;;;;;;5078068;28;20499;-80
2022/04/09 10:49:19;;;;;;;3.17;1.47;;;7.60;99.90;;;;;;5079374;28;20455;-80
2022/04/09 10:52:15;;;;;;;6.53;2.03;;;7.60;99.90;;;;;;5079608;28;20445;-80
2022/04/09 10:55:23;;;;;;;5.23;2.23;;;7.60;99.90;;;;;;5077938;28;20449;-80
2022/04/09 10:58:00;;;;;;;5.90;2.70;;;7.70;99.90;;;;;;5076557;28;20463;-80
2022/04/09 11:00:34;;;;;;;8.33;2.70;;;7.80;99.90;;;;;;5077115;28;20543;-80
2022/04/09 11:03:17;;;;;;;8.57;2.20;;;7.80;99.90;;;;;;5077477;28;20455;-80
2022/04/09 11:05:46;;;;;;;5.07;2.93;;;7.80;99.90;;;;;;5072665;28;20567;-80
2022/04/09 11:08:20;;;;;;;3.67;1.70;;;7.70;99.90;;;;;;5078581;28;20429;-79
2022/04/09 11:10:48;;;;;;;3.73;1.17;;;7.70;99.90;;;;;;5077881;28;20461;-79
2022/04/09 11:13:29;;;;;;;2.83;0.90;;;7.50;99.90;;;;;;5078213;28;20581;-80
2022/04/09 11:15:59;;;;;;;2.87;1.30;;;7.40;99.90;;;;;;5078261;28;20832;-80
2022/04/09 11:18:31;;;;;;;2.53;1.60;;;7.40;99.90;;;;;;5078925;28;20824;-80
2022/04/09 11:21:02;;;;;;;6.43;1.80;;;7.40;99.90;;;;;;5077527;28;20461;-80
2022/04/09 11:23:31;;;;;;;4.33;1.60;;;7.40;99.90;;;;;;5077748;28;20441;-80
2022/04/09 11:25:59;;;;;;;5.30;1.70;;;7.50;99.90;;;;;;5077797;28;21009;-80
2022/04/09 11:28:38;;;;;;;6.63;1.87;;;7.60;99.90;;;;;;5076160;28;20852;-80
2022/04/09 11:31:07;;;;;;;3.73;1.60;;;7.70;99.90;;;;;;5077715;28;20519;-80
2022/04/09 11:33:35;;;;;;;4.40;1.90;;;7.80;99.90;;;;;;5077229;28;21056;-80
2022/04/09 11:36:05;;;;;;;4.53;1.40;;;7.90;99.90;;;;;;5053992;28;20466;-80
2022/04/09 11:38:34;;;;;;;3.40;1.43;;;8.00;99.90;;;;;;5053087;28;20459;-80
2022/04/09 11:41:19;;;;;;;4.97;1.43;;;8.10;99.90;;;;;;5053371;28;20561;-80
2022/04/09 11:43:47;;;;;;;4.30;2.00;;;8.10;99.90;;;;;;5038844;28;20448;-80
2022/04/09 11:46:16;;;;;;;3.27;1.73;;;8.10;99.90;;;;;;5037843;28;20471;-80
2022/04/09 11:48:49;;;;;;;6.63;2.00;;;8.10;99.90;;;;;;5053440;28;20820;-80
2022/04/09 11:51:20;;;;;;;4.23;1.20;;;8.10;99.90;;;;;;5054468;28;20469;-80
2022/04/09 11:53:48;;;;;;;3.57;1.37;;;8.00;99.90;;;;;;5075283;28;20453;-79
2022/04/09 11:56:19;;;;;;;5.10;2.07;;;7.90;99.90;;;;;;5077634;28;20472;-79
2022/04/09 11:58:47;;;;;;;4.00;1.50;;;7.70;99.90;;;;;;5054003;28;20454;-79
2022/04/09 12:01:18;;;;;;;5.83;1.40;;;7.60;99.90;;;;;;5054058;28;20544;-80
2022/04/09 12:03:52;;;;;;;4.30;1.80;;;7.60;99.90;;;;;;5036940;28;20454;-78
2022/04/09 12:06:22;;;;;;;3.13;1.40;;;7.70;99.90;;;;;;5053142;28;21002;-78
2022/04/09 12:08:50;;;;;;;5.00;1.20;;;7.70;99.90;;;;;;5054950;28;20453;-79
2022/04/09 12:11:21;;;;;;;4.10;1.97;;;7.80;99.90;;;;;;5074284;28;20451;-78
2022/04/09 12:13:49;;;;;;;2.60;1.10;;;7.80;99.90;;;;;;5080443;28;20904;-79
2022/04/09 12:16:19;;;;;;;3.30;1.90;;;7.80;99.90;;;;;;5079118;28;20468;-79
2022/04/09 12:18:49;;;;;;;6.30;1.87;;;7.80;99.90;;;;;;5080556;28;20539;-79
2022/04/09 12:21:23;;;;;;;3.80;1.67;;;7.80;99.90;;;;;;5078700;28;20899;-79
2022/04/09 12:24:01;;;;;;;4.60;2.10;;;7.90;99.90;;;;;;5077762;28;20483;-79
2022/04/09 12:26:31;;;;;;;5.20;2.23;;;7.90;99.90;;;;;;5080013;28;20476;-79
2022/04/09 12:29:11;;;;;;;9.70;2.50;;;7.90;99.90;;;;;;5078905;28;20502;-79
2022/04/09 12:31:40;;;;;;;5.00;2.03;;;7.90;99.90;;;;;;5078395;28;20568;-79
2022/04/09 12:34:09;;;;;;;7.10;2.47;;;7.90;99.90;;;;;;5080016;28;20448;-79
2022/04/09 12:36:58;;;;;;;7.43;2.70;;;7.90;99.90;;;;;;5078309;28;21004;-79
2022/04/09 12:39:28;;;;;;;4.70;2.63;;;7.90;99.90;;;;;;5078930;28;20445;-79
2022/04/09 12:41:58;;;;;;;5.50;2.70;;;7.90;99.90;;;;;;5077654;28;20473;-79
2022/04/09 12:44:27;;;;;;;6.50;2.30;;;7.90;99.90;;;;;;5078586;28;20460;-79
2022/04/09 12:46:56;;;;;;;6.03;2.13;;;7.90;99.90;;;;;;5079790;28;20476;-79
2022/04/09 12:49:28;;;;;;;5.17;2.03;;;8.00;99.90;;;;;;5078425;28;21028;-79
2022/04/09 12:51:58;;;;;;;6.57;2.30;;;8.10;99.90;;;;;;5078270;28;20881;-79
2022/04/09 12:54:28;;;;;;;5.43;1.90;;;8.10;99.90;;;;;;5078256;28;20492;-79
2022/04/09 12:56:56;;;;;;;6.63;2.00;;;8.20;99.90;;;;;;5078384;28;20469;-79
2022/04/09 12:59:25;;;;;;;5.80;1.80;;;8.30;99.90;;;;;;5077984;28;20484;-79
2022/04/09 13:01:53;;;;;;;9.27;2.70;;;8.50;99.90;;;;;;5078649;28;20469;-79
2022/04/09 13:04:21;;;;;;;5.20;2.20;;;8.60;99.90;;;;;;5074574;28;20448;-79
2022/04/09 13:06:49;;;;;;;6.03;2.20;;;8.70;99.90;;;;;;5054653;28;20997;-79
2022/04/09 13:09:19;;;;;;;4.70;1.90;;;8.80;99.90;;;;;;5077554;28;20453;-79
2022/04/09 13:11:47;;;;;;;5.17;1.77;;;8.90;99.90;;;;;;5077732;28;20528;-79
2022/04/09 13:14:16;;;;;;;6.60;1.70;;;9.00;99.90;;;;;;5079222;28;20449;-79
2022/04/09 13:16:45;;;;;;;6.80;2.03;;;9.10;99.90;;;;;;5077052;28;20504;-79
2022/04/09 13:19:13;;;;;;;5.00;1.43;;;9.20;99.90;;;;;;5076726;28;20488;-80